Portada
METAR-TAF:

METAR-TAF

Aeroports :

Tarapoto, Perú

latitud: 06-27S, longitud: 076-23W, altitud: 281 m

Observació

L'informe es va fer fa 7 minuts, a les 17:38 UTC
Vent 11 kt del Sud amb ràfegues de 22 kt
Temperatura 29°C
Humitat 66%
Pressió 1012 hPa
Visibilitat: 8000 m
Núvols disperses a una alçada de 1500 ft, Cumulus congestus.
Cel ennuvolat a una alçada de 8000 ft
xàfecs en les proximitats

METAR: SPST 291738Z 17011G22KT 8000 VCSH SCT015TCU BKN080 29/22 Q1012

Hora: 12:45 (17:45 UTC)

Pronòstic

L'informe es va fer fa 6 hores i 35 minuts, a les 11:10 UTC
Pronòstic vàlid del 29 a les 12 UTC al 30 a les 12 UTC
Vent 5 kt del Sud/Sud-Est
Visibilitat 10 km o més
Núvols disperses a una alçada de 1500 ft
Cel ennuvolat a una alçada de 8000 ft
Temporalment
l' 29 a les 12 UTC al 29 a les 14 UTC
Visibilitat: 2000 m
Cel ennuvolat a una alçada de 1000 ft
boirina

TAF: SPST 291110Z 2912/3012 15005KT 9999 SCT015 BKN080 TX34/2919Z TN22/3011Z TEMPO 2912/2914 2000 BR BKN010 BNK015

Observacions i pronòstics meteorològics de més de 4000 aeroports (METAR i TAF).

Les estacions disponibles són els punts grocs i vermells al mapa.

Posi el ratolí al punt desitjat per veure el nom de l'estació.

Feu clic per veure les observacions i els pronòstics meteorològics.

Per canviar el mapa: feu clic els botons verds amb una creu de color negre per apropar; al botó verd amb un guió per allunyar la imatge; o en les fletxes verdes per a mapes adjacents.


METAR-TAF: